createdAt,value
2023-03-26T00:01:29.780Z,52.84
2023-03-26T00:03:58.022Z,53.52
2023-03-26T00:06:28.875Z,53.78
2023-03-26T00:08:58.219Z,53.04
2023-03-26T00:11:27.966Z,53.74
2023-03-26T00:13:59.148Z,53.29
2023-03-26T00:16:30.170Z,54.35
2023-03-26T00:18:58.081Z,53.94
2023-03-26T00:21:27.876Z,54.19
2023-03-26T00:24:07.584Z,54.11
2023-03-26T00:26:37.695Z,54.12
2023-03-26T00:29:06.715Z,55.32
2023-03-26T00:31:34.811Z,55.33
2023-03-26T00:34:03.899Z,56.11
2023-03-26T00:36:32.206Z,55.66
2023-03-26T00:38:59.712Z,56.00
2023-03-26T00:41:31.087Z,55.50
2023-03-26T00:44:00.149Z,55.52
2023-03-26T00:46:30.784Z,55.73
2023-03-26T00:48:59.762Z,55.86
2023-03-26T00:51:28.890Z,55.45
2023-03-26T00:53:59.467Z,54.79
2023-03-26T00:56:27.130Z,55.08
2023-03-26T00:58:54.716Z,55.43
2023-03-26T01:01:28.704Z,54.86
2023-03-26T01:04:07.321Z,54.78
2023-03-26T01:06:37.944Z,55.24
2023-03-26T01:09:15.889Z,54.50
2023-03-26T01:11:44.404Z,55.45
2023-03-26T01:14:16.324Z,56.96
2023-03-26T01:17:06.045Z,55.12
2023-03-26T01:19:56.216Z,55.33
2023-03-26T01:22:25.916Z,55.40
2023-03-26T01:24:56.221Z,54.04
2023-03-26T01:27:32.317Z,55.06
2023-03-26T01:30:12.114Z,55.13
2023-03-26T01:33:16.242Z,55.44
2023-03-26T01:35:50.399Z,53.66
2023-03-26T01:38:23.790Z,53.58
2023-03-26T01:40:51.737Z,54.02
2023-03-26T01:43:37.038Z,52.68
2023-03-26T01:46:07.247Z,53.82
2023-03-26T01:48:41.419Z,52.79
2023-03-26T01:51:10.500Z,52.77
2023-03-26T01:53:42.324Z,54.65
2023-03-26T01:56:12.814Z,53.64
2023-03-26T01:58:43.921Z,54.69
2023-03-26T02:01:31.152Z,53.39
2023-03-26T02:04:09.631Z,53.74
2023-03-26T02:06:47.983Z,52.95
2023-03-26T02:09:20.425Z,53.04
2023-03-26T02:11:48.297Z,53.43
2023-03-26T02:14:16.479Z,54.10
2023-03-26T02:16:46.940Z,54.36
2023-03-26T02:19:21.662Z,53.53
2023-03-26T02:21:51.488Z,53.49
2023-03-26T02:24:19.974Z,52.76
2023-03-26T02:26:48.020Z,52.64
2023-03-26T02:29:19.442Z,52.50
2023-03-26T02:31:48.502Z,52.68
2023-03-26T02:34:16.906Z,52.43
2023-03-26T02:36:46.941Z,53.29
2023-03-26T02:39:14.629Z,52.87
2023-03-26T02:41:43.391Z,53.18
2023-03-26T02:44:11.105Z,52.62
2023-03-26T02:46:41.674Z,52.58
2023-03-26T02:49:11.037Z,52.60
2023-03-26T02:51:38.515Z,52.91
2023-03-26T02:54:07.182Z,52.98
2023-03-26T02:56:35.982Z,53.15
2023-03-26T02:59:04.456Z,53.04
2023-03-26T03:01:35.122Z,53.05
2023-03-26T03:04:04.341Z,52.99
2023-03-26T03:06:32.850Z,53.77
2023-03-26T03:09:02.692Z,53.45
2023-03-26T03:11:32.426Z,54.68
2023-03-26T03:13:59.862Z,54.97
2023-03-26T03:16:27.801Z,55.75
2023-03-26T03:18:58.033Z,55.35
2023-03-26T03:21:28.490Z,55.43
2023-03-26T03:23:56.470Z,54.92
2023-03-26T03:26:29.923Z,55.54
2023-03-26T03:29:00.762Z,55.66
2023-03-26T03:31:28.477Z,54.96
2023-03-26T03:33:57.222Z,55.54
2023-03-26T03:36:27.982Z,55.38
2023-03-26T03:38:55.939Z,55.46
2023-03-26T03:41:23.749Z,54.95
2023-03-26T03:43:51.933Z,55.06
2023-03-26T03:46:19.675Z,54.72
2023-03-26T03:48:50.385Z,54.72
2023-03-26T03:51:18.681Z,54.57
2023-03-26T03:53:46.266Z,54.00
2023-03-26T03:56:14.808Z,54.26
2023-03-26T03:58:46.365Z,54.58
2023-03-26T04:01:15.262Z,54.29
2023-03-26T04:03:46.382Z,54.50
2023-03-26T04:06:19.140Z,54.08
2023-03-26T04:08:49.590Z,54.31
2023-03-26T04:11:17.207Z,54.13
2023-03-26T04:13:45.849Z,53.84
2023-03-26T04:16:15.058Z,53.58
2023-03-26T04:18:42.438Z,53.81
2023-03-26T04:21:30.358Z,53.87
2023-03-26T04:23:58.058Z,54.11
2023-03-26T04:26:30.823Z,54.31
2023-03-26T04:29:00.997Z,54.42
2023-03-26T04:31:32.032Z,54.82
2023-03-26T04:34:06.282Z,54.64
2023-03-26T04:36:35.545Z,55.12
2023-03-26T04:39:05.159Z,55.09
2023-03-26T04:41:34.022Z,55.18
2023-03-26T04:44:02.164Z,55.16
2023-03-26T04:46:33.737Z,54.91
2023-03-26T04:49:02.089Z,55.20
2023-03-26T04:51:39.526Z,55.98
2023-03-26T04:54:12.664Z,55.81
2023-03-26T04:56:46.679Z,56.63
2023-03-26T04:59:26.050Z,56.12
2023-03-26T05:01:54.438Z,56.48
2023-03-26T05:04:22.607Z,56.23
2023-03-26T05:06:54.300Z,56.37
2023-03-26T05:09:22.777Z,56.11
2023-03-26T05:11:51.838Z,55.43
2023-03-26T05:14:19.686Z,54.50
2023-03-26T05:16:50.328Z,54.85
2023-03-26T05:19:17.874Z,53.32
2023-03-26T05:21:46.024Z,53.10
2023-03-26T05:24:13.919Z,53.10
2023-03-26T05:26:41.609Z,53.77
2023-03-26T05:29:09.170Z,53.70
2023-03-26T05:31:37.904Z,53.27
2023-03-26T05:34:06.748Z,53.11
2023-03-26T05:36:34.397Z,53.67
2023-03-26T05:39:03.435Z,54.01
2023-03-26T05:41:34.740Z,54.53
2023-03-26T05:44:02.437Z,54.21
2023-03-26T05:46:30.273Z,55.61
2023-03-26T05:48:57.675Z,55.87
2023-03-26T05:51:25.388Z,56.71
2023-03-26T05:53:56.834Z,56.44
2023-03-26T05:56:26.279Z,55.30
2023-03-26T05:58:57.394Z,54.62
2023-03-26T06:01:27.283Z,54.73
2023-03-26T06:03:57.300Z,53.89
2023-03-26T06:06:26.059Z,52.86
2023-03-26T06:09:01.874Z,52.78
2023-03-26T06:11:31.934Z,53.19
2023-03-26T06:14:00.478Z,50.47
2023-03-26T06:16:28.543Z,49.46
2023-03-26T06:18:57.570Z,49.13
2023-03-26T06:21:26.628Z,49.98
2023-03-26T06:23:55.305Z,48.81
2023-03-26T06:26:26.115Z,47.68
2023-03-26T06:28:53.944Z,48.18
2023-03-26T06:31:21.626Z,47.80
2023-03-26T06:33:49.527Z,48.09
2023-03-26T06:36:17.151Z,48.91
2023-03-26T06:38:44.721Z,48.16
2023-03-26T06:41:12.601Z,47.94
2023-03-26T06:43:40.409Z,47.19
2023-03-26T06:46:11.164Z,46.81
2023-03-26T06:48:42.209Z,46.74
2023-03-26T06:51:12.583Z,46.37
2023-03-26T06:53:41.280Z,47.13
2023-03-26T06:56:09.486Z,46.55
2023-03-26T06:58:37.396Z,46.04
2023-03-26T07:01:17.800Z,46.07
2023-03-26T07:03:59.977Z,46.63
2023-03-26T07:06:37.351Z,47.56
2023-03-26T07:09:08.123Z,48.17
2023-03-26T07:11:38.254Z,48.52
2023-03-26T07:14:07.972Z,49.66
2023-03-26T07:16:36.755Z,48.86
2023-03-26T07:19:07.188Z,49.25
2023-03-26T07:21:35.369Z,49.28
2023-03-26T07:24:04.549Z,49.00
2023-03-26T07:26:39.131Z,49.70
2023-03-26T07:29:21.033Z,50.05
2023-03-26T07:32:09.693Z,51.17
2023-03-26T07:34:49.158Z,50.60
2023-03-26T07:37:22.890Z,50.14
2023-03-26T07:39:59.488Z,49.01
2023-03-26T07:42:40.499Z,48.61
2023-03-26T07:45:39.631Z,48.25
2023-03-26T07:48:21.112Z,47.08
2023-03-26T07:50:49.620Z,48.56
2023-03-26T07:53:18.769Z,48.22
2023-03-26T07:55:52.628Z,48.26
2023-03-26T07:58:39.737Z,47.80
2023-03-26T08:01:34.602Z,47.36
2023-03-26T08:04:26.159Z,47.20
2023-03-26T08:07:08.495Z,48.37
2023-03-26T08:10:00.119Z,46.48
2023-03-26T08:12:37.246Z,46.95
2023-03-26T08:15:40.785Z,46.98
2023-03-26T08:18:20.262Z,46.09
2023-03-26T08:20:50.192Z,47.15
2023-03-26T08:23:27.933Z,45.74
2023-03-26T08:26:19.787Z,45.62
2023-03-26T08:28:58.712Z,44.67
2023-03-26T08:31:35.064Z,44.38
2023-03-26T08:34:02.793Z,43.53
2023-03-26T08:36:30.572Z,43.02
2023-03-26T08:38:59.595Z,42.00
2023-03-26T08:41:46.292Z,42.49
2023-03-26T08:44:35.937Z,42.29
2023-03-26T08:47:36.373Z,41.33
2023-03-26T08:50:13.540Z,40.69
2023-03-26T08:52:46.807Z,40.14
2023-03-26T08:55:23.922Z,40.98
2023-03-26T08:58:13.138Z,41.17
2023-03-26T09:01:18.698Z,40.78
2023-03-26T09:03:58.902Z,41.25
2023-03-26T09:06:52.792Z,40.64
2023-03-26T09:09:47.914Z,41.23
2023-03-26T09:12:47.157Z,40.50
2023-03-26T09:15:23.777Z,40.26
2023-03-26T09:18:29.095Z,40.72
2023-03-26T09:21:27.677Z,40.16
2023-03-26T09:24:17.865Z,40.68
2023-03-26T09:26:48.965Z,40.79
2023-03-26T09:29:41.837Z,42.22
2023-03-26T09:32:27.806Z,42.17
2023-03-26T09:35:13.444Z,43.03
2023-03-26T09:37:56.075Z,42.46
2023-03-26T09:40:47.301Z,41.79
2023-03-26T09:43:20.866Z,40.54
2023-03-26T09:46:20.917Z,40.63
2023-03-26T09:49:37.461Z,39.90
2023-03-26T09:52:23.825Z,39.73
2023-03-26T09:54:54.190Z,39.25
2023-03-26T09:58:08.475Z,39.71
2023-03-26T10:00:50.074Z,40.86
2023-03-26T10:03:56.493Z,41.27
2023-03-26T10:06:32.241Z,40.68
2023-03-26T10:09:08.210Z,40.57
2023-03-26T10:11:54.316Z,40.79
2023-03-26T10:14:28.008Z,44.62
2023-03-26T10:17:05.444Z,47.12
2023-03-26T10:19:39.359Z,48.26
2023-03-26T10:22:38.578Z,47.93
2023-03-26T10:25:06.412Z,50.08
2023-03-26T10:27:46.173Z,50.11
2023-03-26T10:30:41.470Z,49.61
2023-03-26T10:33:35.380Z,53.16
2023-03-26T10:36:37.103Z,52.70
2023-03-26T10:39:37.289Z,50.65
2023-03-26T10:42:24.512Z,48.82
2023-03-26T10:45:27.949Z,49.92
2023-03-26T10:48:18.803Z,49.51
2023-03-26T10:51:17.055Z,50.27
2023-03-26T10:54:01.095Z,47.94
2023-03-26T10:56:39.420Z,50.76
2023-03-26T10:59:10.564Z,50.44
2023-03-26T11:01:41.657Z,49.28
2023-03-26T11:04:16.385Z,48.28
2023-03-26T11:06:59.107Z,47.14
2023-03-26T11:09:41.810Z,50.67
2023-03-26T11:12:26.210Z,51.72
2023-03-26T11:15:02.030Z,51.26
2023-03-26T11:17:42.991Z,51.35
2023-03-26T11:20:18.044Z,52.72
2023-03-26T11:23:08.993Z,51.35
2023-03-26T11:25:58.860Z,52.06
2023-03-26T11:28:33.015Z,49.04
2023-03-26T11:31:20.397Z,48.24
2023-03-26T11:33:51.756Z,46.60
2023-03-26T11:36:24.548Z,46.11
2023-03-26T11:38:54.185Z,48.86
2023-03-26T11:41:24.778Z,46.02
2023-03-26T11:43:57.464Z,44.99
2023-03-26T11:46:26.981Z,43.57
2023-03-26T11:49:08.637Z,42.62
2023-03-26T11:51:38.055Z,42.10
2023-03-26T11:54:08.047Z,39.05
2023-03-26T11:57:04.389Z,39.89
2023-03-26T11:59:45.177Z,38.59
2023-03-26T12:02:25.174Z,39.34
2023-03-26T12:04:56.324Z,34.14
2023-03-26T12:07:32.190Z,33.72
2023-03-26T12:10:18.049Z,32.80
2023-03-26T12:12:47.938Z,31.52
2023-03-26T12:15:18.968Z,32.39
2023-03-26T12:17:48.960Z,30.95
2023-03-26T12:20:26.233Z,31.04
2023-03-26T12:23:01.830Z,31.22
2023-03-26T12:25:32.036Z,30.19
2023-03-26T12:28:14.897Z,29.78
2023-03-26T12:31:02.814Z,29.00
2023-03-26T12:33:35.048Z,31.10
2023-03-26T12:36:24.742Z,30.03
2023-03-26T12:39:15.963Z,28.86
2023-03-26T12:43:51.319Z,30.11
2023-03-26T12:44:58.950Z,29.38
2023-03-26T12:47:57.928Z,31.40
2023-03-26T12:50:34.100Z,30.67
2023-03-26T12:53:15.901Z,31.72
2023-03-26T12:55:53.374Z,31.02
2023-03-26T12:58:38.666Z,31.55
2023-03-26T13:01:06.858Z,30.80
2023-03-26T13:04:03.482Z,32.14
2023-03-26T13:06:58.883Z,32.54
2023-03-26T13:09:37.569Z,31.98
2023-03-26T13:12:14.412Z,33.54
2023-03-26T13:15:00.894Z,31.52
2023-03-26T13:17:56.766Z,30.21
2023-03-26T13:20:51.151Z,29.86
2023-03-26T13:23:26.806Z,30.76
2023-03-26T13:25:57.649Z,32.21
2023-03-26T13:28:37.065Z,31.61
2023-03-26T13:31:18.576Z,31.77
2023-03-26T13:33:48.901Z,31.48
2023-03-26T13:36:24.559Z,31.26
2023-03-26T13:39:03.832Z,30.73
2023-03-26T13:41:43.767Z,30.94
2023-03-26T13:44:28.778Z,29.70
2023-03-26T13:47:04.086Z,29.67
2023-03-26T13:49:37.693Z,29.60
2023-03-26T13:52:26.713Z,29.57
2023-03-26T13:55:23.224Z,29.73
2023-03-26T13:58:02.094Z,30.35
2023-03-26T14:00:54.704Z,30.12
2023-03-26T14:03:35.864Z,29.79
2023-03-26T14:06:11.893Z,30.22
2023-03-26T14:08:45.624Z,29.78
2023-03-26T14:11:17.965Z,29.11
2023-03-26T14:13:56.165Z,28.57
2023-03-26T14:16:35.637Z,28.09
2023-03-26T14:19:21.670Z,28.11
2023-03-26T14:22:13.890Z,27.65
2023-03-26T14:24:51.567Z,28.03
2023-03-26T14:27:32.363Z,28.01
2023-03-26T14:30:15.164Z,28.76
2023-03-26T14:33:27.912Z,27.97
2023-03-26T14:36:11.596Z,28.35
2023-03-26T14:38:59.341Z,28.33
2023-03-26T14:41:36.769Z,27.74
2023-03-26T14:44:52.808Z,26.11
2023-03-26T14:47:22.741Z,26.81
2023-03-26T14:50:35.983Z,25.97
2023-03-26T14:53:14.426Z,25.82
2023-03-26T14:56:07.644Z,26.21
2023-03-26T14:59:20.945Z,26.79
2023-03-26T15:02:23.380Z,26.50
2023-03-26T15:04:54.014Z,27.21
2023-03-26T15:07:41.367Z,27.04
2023-03-26T15:10:18.625Z,27.81
2023-03-26T15:13:17.830Z,27.33
2023-03-26T15:16:28.120Z,27.22
2023-03-26T15:19:22.936Z,27.29
2023-03-26T15:22:18.597Z,27.57
2023-03-26T15:25:19.472Z,27.88
2023-03-26T15:28:13.508Z,27.79
2023-03-26T15:31:10.968Z,28.07
2023-03-26T15:33:44.352Z,27.56
2023-03-26T15:37:02.910Z,27.35
2023-03-26T15:40:11.503Z,27.83
2023-03-26T15:42:53.895Z,28.38
2023-03-26T15:45:48.001Z,28.04
2023-03-26T15:48:32.472Z,28.68
2023-03-26T15:51:28.656Z,28.54
2023-03-26T15:54:08.863Z,28.64
2023-03-26T15:56:58.570Z,29.80
2023-03-26T16:00:01.679Z,29.61
2023-03-26T16:02:39.210Z,29.84
2023-03-26T16:05:23.377Z,29.60
2023-03-26T16:08:09.243Z,29.51
2023-03-26T16:10:45.201Z,29.47
2023-03-26T16:13:40.272Z,30.12
2023-03-26T16:16:16.350Z,29.61
2023-03-26T16:19:13.291Z,29.66
2023-03-26T16:21:59.358Z,31.32
2023-03-26T16:24:36.244Z,33.67
2023-03-26T16:27:15.331Z,34.09
2023-03-26T16:30:16.212Z,33.40
2023-03-26T16:33:07.832Z,33.99
2023-03-26T16:35:42.286Z,33.79
2023-03-26T16:38:19.691Z,34.35
2023-03-26T16:41:17.168Z,35.17
2023-03-26T16:44:11.177Z,33.50
2023-03-26T16:47:11.914Z,35.54
2023-03-26T16:50:07.372Z,36.61
2023-03-26T16:52:57.651Z,36.50
2023-03-26T16:55:51.983Z,36.49
2023-03-26T16:58:38.277Z,36.70
2023-03-26T17:01:28.469Z,37.26
2023-03-26T17:04:00.229Z,37.98
2023-03-26T17:06:54.324Z,37.14
2023-03-26T17:09:56.046Z,37.38
2023-03-26T17:12:36.366Z,37.53
2023-03-26T17:15:23.859Z,38.30
2023-03-26T17:18:04.782Z,38.76
2023-03-26T17:21:09.051Z,38.41
2023-03-26T17:23:48.894Z,38.96
2023-03-26T17:26:47.885Z,39.73
2023-03-26T17:29:52.117Z,38.88
2023-03-26T17:32:21.919Z,39.83
2023-03-26T17:34:50.846Z,40.03
2023-03-26T17:37:44.896Z,38.85
2023-03-26T17:40:32.963Z,40.14
2023-03-26T17:43:12.605Z,41.42
2023-03-26T17:46:02.754Z,41.09
2023-03-26T17:48:37.605Z,40.99
2023-03-26T17:51:40.653Z,41.35
2023-03-26T17:54:38.368Z,41.22
2023-03-26T17:57:15.180Z,41.59
2023-03-26T17:59:45.542Z,41.10
2023-03-26T18:02:17.217Z,41.19
2023-03-26T18:04:48.804Z,41.16
2023-03-26T18:07:29.350Z,42.21
2023-03-26T18:10:18.779Z,41.85
2023-03-26T18:12:58.922Z,42.52
2023-03-26T18:15:57.852Z,42.18
2023-03-26T18:18:34.197Z,41.70
2023-03-26T18:21:07.723Z,41.87
2023-03-26T18:23:40.184Z,42.09
2023-03-26T18:26:19.983Z,42.25
2023-03-26T18:29:30.227Z,42.08
2023-03-26T18:32:10.534Z,41.86
2023-03-26T18:34:51.691Z,42.25
2023-03-26T18:37:26.745Z,42.79
2023-03-26T18:40:12.598Z,42.06
2023-03-26T18:42:42.369Z,42.45
2023-03-26T18:45:22.701Z,42.41
2023-03-26T18:47:57.388Z,42.80
2023-03-26T18:50:35.447Z,42.93
2023-03-26T18:53:30.438Z,43.29
2023-03-26T18:55:59.137Z,43.41
2023-03-26T18:58:35.052Z,43.27
2023-03-26T19:01:16.973Z,42.85
2023-03-26T19:03:55.717Z,43.32
2023-03-26T19:06:26.490Z,43.35
2023-03-26T19:08:56.057Z,42.67
2023-03-26T19:11:25.586Z,42.95
2023-03-26T19:14:17.381Z,43.23
2023-03-26T19:17:07.472Z,43.42
2023-03-26T19:19:39.161Z,43.29
2023-03-26T19:22:14.290Z,43.25
2023-03-26T19:24:45.170Z,43.65
2023-03-26T19:27:15.814Z,43.18
2023-03-26T19:29:45.548Z,43.59
2023-03-26T19:32:23.558Z,43.36
2023-03-26T19:34:53.777Z,43.56
2023-03-26T19:37:26.286Z,43.11
2023-03-26T19:40:02.795Z,42.91
2023-03-26T19:42:43.072Z,42.81
2023-03-26T19:45:18.567Z,43.32
2023-03-26T19:47:54.727Z,43.64
2023-03-26T19:50:34.536Z,43.02
2023-03-26T19:53:16.581Z,43.58
2023-03-26T19:55:59.159Z,42.88
2023-03-26T19:58:28.666Z,43.18
2023-03-26T20:01:00.320Z,43.45
2023-03-26T20:03:41.953Z,43.17
2023-03-26T20:06:17.052Z,43.89
2023-03-26T20:08:47.186Z,42.56
2023-03-26T20:11:21.551Z,42.61
2023-03-26T20:13:50.622Z,43.86
2023-03-26T20:16:30.265Z,42.76
2023-03-26T20:19:02.651Z,42.90
2023-03-26T20:21:41.800Z,42.84
2023-03-26T20:24:16.151Z,42.51
2023-03-26T20:26:46.591Z,41.58
2023-03-26T20:29:17.504Z,42.12
2023-03-26T20:31:46.420Z,42.91
2023-03-26T20:34:20.795Z,43.29
2023-03-26T20:36:55.039Z,42.15
2023-03-26T20:39:25.285Z,42.96
2023-03-26T20:41:54.433Z,42.78
2023-03-26T20:44:22.873Z,43.29
2023-03-26T20:46:51.095Z,43.31
2023-03-26T20:49:19.658Z,43.30
2023-03-26T20:51:49.288Z,43.18
2023-03-26T20:54:20.269Z,43.30
2023-03-26T20:56:49.199Z,43.85
2023-03-26T20:59:26.853Z,43.92
2023-03-26T21:02:00.215Z,43.83
2023-03-26T21:04:28.168Z,43.71
2023-03-26T21:07:07.208Z,43.67
2023-03-26T21:09:39.525Z,43.96
2023-03-26T21:12:22.154Z,44.38
2023-03-26T21:14:50.105Z,43.09
2023-03-26T21:17:20.695Z,44.67
2023-03-26T21:19:48.439Z,44.19
2023-03-26T21:22:22.612Z,44.27
2023-03-26T21:24:52.763Z,45.11
2023-03-26T21:27:54.050Z,51.35
2023-03-26T21:30:22.211Z,50.86
2023-03-26T21:32:51.399Z,53.24
2023-03-26T21:35:19.667Z,54.39
2023-03-26T21:37:48.770Z,54.86
2023-03-26T21:40:20.485Z,52.75
2023-03-26T21:42:51.601Z,54.21
2023-03-26T21:45:19.980Z,53.84
2023-03-26T21:47:48.536Z,54.73
2023-03-26T21:50:18.816Z,55.47
2023-03-26T21:52:50.861Z,56.46
2023-03-26T21:55:23.520Z,57.43
2023-03-26T21:57:54.777Z,57.11
2023-03-26T22:00:33.529Z,57.17
2023-03-26T22:03:23.236Z,57.26
2023-03-26T22:05:56.503Z,56.83
2023-03-26T22:08:31.425Z,57.54
2023-03-26T22:10:58.857Z,57.34
2023-03-26T22:13:27.241Z,56.64
2023-03-26T22:15:54.765Z,56.79
2023-03-26T22:18:24.526Z,57.43
2023-03-26T22:20:52.862Z,57.97
2023-03-26T22:23:20.620Z,58.61
2023-03-26T22:25:48.048Z,59.55
2023-03-26T22:28:16.398Z,59.47
2023-03-26T22:30:43.864Z,60.08
2023-03-26T22:33:12.186Z,59.93
2023-03-26T22:35:41.910Z,59.81
2023-03-26T22:38:10.028Z,59.93
2023-03-26T22:40:37.937Z,60.21
2023-03-26T22:43:05.612Z,60.46
2023-03-26T22:45:32.992Z,60.40
2023-03-26T22:48:04.470Z,60.85
2023-03-26T22:50:33.008Z,61.04
2023-03-26T22:53:00.569Z,60.97
2023-03-26T22:55:29.072Z,61.11
2023-03-26T22:57:57.758Z,60.98
2023-03-26T23:00:26.566Z,60.96
2023-03-26T23:02:55.999Z,60.83
2023-03-26T23:05:23.773Z,60.95
2023-03-26T23:07:52.234Z,61.65
2023-03-26T23:10:21.644Z,61.94
2023-03-26T23:12:49.686Z,61.64
2023-03-26T23:15:17.117Z,61.53
2023-03-26T23:17:44.520Z,62.59
2023-03-26T23:20:23.327Z,61.27
2023-03-26T23:22:51.382Z,61.40
2023-03-26T23:25:19.926Z,61.85
2023-03-26T23:27:48.461Z,62.34
2023-03-26T23:30:16.689Z,62.04
2023-03-26T23:32:44.138Z,62.21
2023-03-26T23:35:11.839Z,62.29
2023-03-26T23:37:42.334Z,62.14
2023-03-26T23:40:10.772Z,62.54
2023-03-26T23:42:38.468Z,61.39
2023-03-26T23:45:06.682Z,61.91
2023-03-26T23:47:35.009Z,61.47
2023-03-26T23:50:03.842Z,61.66
2023-03-26T23:52:31.770Z,61.57
2023-03-26T23:54:59.936Z,61.93
2023-03-26T23:57:28.320Z,62.20
2023-03-26T23:59:56.219Z,61.86
